sensor_id;sensor_type;location;lat;lon;timestamp;P1;durP1;ratioP1;P2;durP2;ratioP2
61025;SDS011;46911;32.650;-16.902;2023-05-10T00:00:01;54.47;;;7.15;;
61025;SDS011;46911;32.650;-16.902;2023-05-10T00:02:13;47.15;;;7.03;;
61025;SDS011;46911;32.650;-16.902;2023-05-10T00:04:16;50.03;;;6.65;;
61025;SDS011;46911;32.650;-16.902;2023-05-10T00:06:17;41.08;;;6.07;;
61025;SDS011;46911;32.650;-16.902;2023-05-10T00:08:20;41.83;;;6.85;;
61025;SDS011;46911;32.650;-16.902;2023-05-10T00:10:26;63.10;;;7.72;;
61025;SDS011;46911;32.650;-16.902;2023-05-10T00:12:31;54.20;;;6.72;;
61025;SDS011;46911;32.650;-16.902;2023-05-10T00:14:35;43.67;;;6.90;;
61025;SDS011;46911;32.650;-16.902;2023-05-10T00:16:39;45.58;;;6.40;;
61025;SDS011;46911;32.650;-16.902;2023-05-10T00:18:45;42.58;;;5.53;;
61025;SDS011;46911;32.650;-16.902;2023-05-10T00:20:51;34.33;;;5.93;;
61025;SDS011;46911;32.650;-16.902;2023-05-10T00:22:54;42.13;;;5.80;;
61025;SDS011;46911;32.650;-16.902;2023-05-10T00:24:55;36.47;;;6.32;;
61025;SDS011;46911;32.650;-16.902;2023-05-10T00:26:56;38.80;;;5.10;;
61025;SDS011;46911;32.650;-16.902;2023-05-10T00:28:56;28.88;;;5.07;;
61025;SDS011;46911;32.650;-16.902;2023-05-10T00:30:58;41.50;;;5.20;;
61025;SDS011;46911;32.650;-16.902;2023-05-10T00:33:02;33.90;;;5.68;;
61025;SDS011;46911;32.650;-16.902;2023-05-10T00:35:03;39.05;;;5.88;;
61025;SDS011;46911;32.650;-16.902;2023-05-10T00:37:07;29.30;;;5.40;;
61025;SDS011;46911;32.650;-16.902;2023-05-10T00:39:08;35.00;;;5.05;;
61025;SDS011;46911;32.650;-16.902;2023-05-10T00:41:09;29.95;;;5.07;;
61025;SDS011;46911;32.650;-16.902;2023-05-10T00:43:12;37.55;;;5.50;;
61025;SDS011;46911;32.650;-16.902;2023-05-10T00:45:13;31.73;;;4.70;;
61025;SDS011;46911;32.650;-16.902;2023-05-10T00:47:15;37.78;;;5.13;;
61025;SDS011;46911;32.650;-16.902;2023-05-10T00:49:16;47.58;;;5.55;;
61025;SDS011;46911;32.650;-16.902;2023-05-10T00:51:19;32.80;;;5.32;;
61025;SDS011;46911;32.650;-16.902;2023-05-10T00:53:23;22.52;;;4.60;;
61025;SDS011;46911;32.650;-16.902;2023-05-10T00:55:25;29.67;;;4.90;;
61025;SDS011;46911;32.650;-16.902;2023-05-10T00:57:30;25.20;;;4.60;;
61025;SDS011;46911;32.650;-16.902;2023-05-10T00:59:31;33.65;;;4.90;;
61025;SDS011;46911;32.650;-16.902;2023-05-10T01:01:35;39.08;;;4.53;;
61025;SDS011;46911;32.650;-16.902;2023-05-10T01:03:36;29.42;;;5.13;;
61025;SDS011;46911;32.650;-16.902;2023-05-10T01:05:37;26.65;;;5.40;;
61025;SDS011;46911;32.650;-16.902;2023-05-10T01:07:41;33.78;;;5.70;;
61025;SDS011;46911;32.650;-16.902;2023-05-10T01:09:43;42.88;;;6.15;;
61025;SDS011;46911;32.650;-16.902;2023-05-10T01:11:47;32.22;;;6.57;;
61025;SDS011;46911;32.650;-16.902;2023-05-10T01:13:55;31.65;;;6.40;;
61025;SDS011;46911;32.650;-16.902;2023-05-10T01:15:57;31.83;;;4.75;;
61025;SDS011;46911;32.650;-16.902;2023-05-10T01:18:05;37.70;;;4.90;;
61025;SDS011;46911;32.650;-16.902;2023-05-10T01:20:07;16.48;;;3.63;;
61025;SDS011;46911;32.650;-16.902;2023-05-10T01:29:32;39.85;;;4.68;;
61025;SDS011;46911;32.650;-16.902;2023-05-10T01:36:31;27.08;;;4.57;;
61025;SDS011;46911;32.650;-16.902;2023-05-10T01:43:36;25.88;;;3.95;;
61025;SDS011;46911;32.650;-16.902;2023-05-10T01:46:02;28.15;;;4.68;;
61025;SDS011;46911;32.650;-16.902;2023-05-10T01:48:14;33.75;;;4.72;;
61025;SDS011;46911;32.650;-16.902;2023-05-10T01:50:18;26.55;;;4.07;;
61025;SDS011;46911;32.650;-16.902;2023-05-10T01:52:32;25.88;;;4.40;;
61025;SDS011;46911;32.650;-16.902;2023-05-10T01:54:49;26.75;;;4.00;;
61025;SDS011;46911;32.650;-16.902;2023-05-10T01:56:59;24.90;;;4.00;;
61025;SDS011;46911;32.650;-16.902;2023-05-10T01:59:06;30.60;;;4.10;;
61025;SDS011;46911;32.650;-16.902;2023-05-10T02:01:13;26.98;;;3.95;;
61025;SDS011;46911;32.650;-16.902;2023-05-10T02:03:22;31.10;;;4.18;;
61025;SDS011;46911;32.650;-16.902;2023-05-10T02:05:27;29.20;;;3.75;;
61025;SDS011;46911;32.650;-16.902;2023-05-10T02:07:35;28.58;;;3.72;;
61025;SDS011;46911;32.650;-16.902;2023-05-10T02:09:37;29.35;;;4.82;;
61025;SDS011;46911;32.650;-16.902;2023-05-10T02:11:39;20.60;;;3.92;;
61025;SDS011;46911;32.650;-16.902;2023-05-10T02:13:43;24.77;;;3.58;;
61025;SDS011;46911;32.650;-16.902;2023-05-10T02:15:48;30.48;;;3.85;;
61025;SDS011;46911;32.650;-16.902;2023-05-10T02:17:55;27.20;;;4.43;;
61025;SDS011;46911;32.650;-16.902;2023-05-10T02:20:01;27.30;;;4.65;;
61025;SDS011;46911;32.650;-16.902;2023-05-10T02:22:05;23.63;;;4.30;;
61025;SDS011;46911;32.650;-16.902;2023-05-10T02:24:09;29.55;;;4.72;;
61025;SDS011;46911;32.650;-16.902;2023-05-10T02:26:14;16.35;;;3.03;;
61025;SDS011;46911;32.650;-16.902;2023-05-10T02:28:16;24.25;;;3.33;;
61025;SDS011;46911;32.650;-16.902;2023-05-10T02:30:18;37.33;;;5.13;;
61025;SDS011;46911;32.650;-16.902;2023-05-10T02:32:21;24.77;;;3.90;;
61025;SDS011;46911;32.650;-16.902;2023-05-10T02:34:25;32.53;;;4.20;;
61025;SDS011;46911;32.650;-16.902;2023-05-10T02:36:28;24.08;;;4.45;;
61025;SDS011;46911;32.650;-16.902;2023-05-10T02:38:30;23.17;;;4.55;;
61025;SDS011;46911;32.650;-16.902;2023-05-10T02:40:34;33.63;;;3.75;;
61025;SDS011;46911;32.650;-16.902;2023-05-10T02:42:41;27.08;;;4.85;;
61025;SDS011;46911;32.650;-16.902;2023-05-10T02:44:45;17.83;;;3.67;;
61025;SDS011;46911;32.650;-16.902;2023-05-10T02:46:53;32.35;;;5.30;;
61025;SDS011;46911;32.650;-16.902;2023-05-10T02:48:56;37.83;;;6.82;;
61025;SDS011;46911;32.650;-16.902;2023-05-10T02:51:00;20.92;;;4.15;;
61025;SDS011;46911;32.650;-16.902;2023-05-10T02:53:06;25.30;;;4.38;;
61025;SDS011;46911;32.650;-16.902;2023-05-10T02:55:12;33.03;;;5.28;;
61025;SDS011;46911;32.650;-16.902;2023-05-10T02:57:21;22.27;;;4.03;;
61025;SDS011;46911;32.650;-16.902;2023-05-10T02:59:31;24.73;;;4.72;;
61025;SDS011;46911;32.650;-16.902;2023-05-10T03:01:35;29.23;;;4.03;;
61025;SDS011;46911;32.650;-16.902;2023-05-10T03:03:36;24.90;;;4.53;;
61025;SDS011;46911;32.650;-16.902;2023-05-10T03:05:44;22.98;;;5.53;;
61025;SDS011;46911;32.650;-16.902;2023-05-10T03:07:48;35.00;;;4.70;;
61025;SDS011;46911;32.650;-16.902;2023-05-10T03:09:53;24.23;;;4.60;;
61025;SDS011;46911;32.650;-16.902;2023-05-10T03:12:00;30.00;;;4.32;;
61025;SDS011;46911;32.650;-16.902;2023-05-10T03:16:27;40.38;;;4.88;;
61025;SDS011;46911;32.650;-16.902;2023-05-10T03:18:39;33.03;;;4.57;;
61025;SDS011;46911;32.650;-16.902;2023-05-10T03:20:47;28.00;;;4.70;;
61025;SDS011;46911;32.650;-16.902;2023-05-10T03:22:51;23.05;;;4.63;;
61025;SDS011;46911;32.650;-16.902;2023-05-10T03:25:02;21.83;;;3.05;;
61025;SDS011;46911;32.650;-16.902;2023-05-10T03:27:14;24.10;;;3.42;;
61025;SDS011;46911;32.650;-16.902;2023-05-10T03:29:18;28.52;;;4.65;;
61025;SDS011;46911;32.650;-16.902;2023-05-10T03:31:23;25.67;;;4.25;;
61025;SDS011;46911;32.650;-16.902;2023-05-10T03:33:24;28.83;;;4.22;;
61025;SDS011;46911;32.650;-16.902;2023-05-10T03:35:27;27.00;;;3.75;;
61025;SDS011;46911;32.650;-16.902;2023-05-10T03:37:28;24.45;;;5.15;;
61025;SDS011;46911;32.650;-16.902;2023-05-10T03:39:30;18.88;;;3.05;;
61025;SDS011;46911;32.650;-16.902;2023-05-10T03:41:35;24.10;;;3.55;;
61025;SDS011;46911;32.650;-16.902;2023-05-10T03:43:38;18.77;;;3.67;;
61025;SDS011;46911;32.650;-16.902;2023-05-10T03:45:41;23.27;;;3.55;;
61025;SDS011;46911;32.650;-16.902;2023-05-10T03:47:45;21.13;;;4.10;;
61025;SDS011;46911;32.650;-16.902;2023-05-10T03:49:45;23.90;;;4.50;;
61025;SDS011;46911;32.650;-16.902;2023-05-10T03:51:52;20.63;;;3.35;;
61025;SDS011;46911;32.650;-16.902;2023-05-10T03:53:56;21.42;;;3.72;;
61025;SDS011;46911;32.650;-16.902;2023-05-10T03:56:02;25.23;;;3.65;;
61025;SDS011;46911;32.650;-16.902;2023-05-10T03:58:05;25.00;;;3.92;;
61025;SDS011;46911;32.650;-16.902;2023-05-10T04:00:13;21.15;;;3.22;;
61025;SDS011;46911;32.650;-16.902;2023-05-10T04:02:17;23.25;;;5.32;;
61025;SDS011;46911;32.650;-16.902;2023-05-10T04:04:21;24.50;;;4.80;;
61025;SDS011;46911;32.650;-16.902;2023-05-10T04:06:23;23.30;;;3.42;;
61025;SDS011;46911;32.650;-16.902;2023-05-10T04:08:25;20.75;;;3.17;;
61025;SDS011;46911;32.650;-16.902;2023-05-10T04:10:26;24.77;;;3.85;;
61025;SDS011;46911;32.650;-16.902;2023-05-10T04:12:29;26.63;;;3.50;;
61025;SDS011;46911;32.650;-16.902;2023-05-10T04:14:30;14.95;;;2.60;;
61025;SDS011;46911;32.650;-16.902;2023-05-10T04:16:31;23.50;;;3.13;;
61025;SDS011;46911;32.650;-16.902;2023-05-10T04:18:32;17.70;;;3.28;;
61025;SDS011;46911;32.650;-16.902;2023-05-10T04:20:33;26.85;;;3.90;;
61025;SDS011;46911;32.650;-16.902;2023-05-10T04:22:34;16.10;;;3.38;;
61025;SDS011;46911;32.650;-16.902;2023-05-10T04:24:39;17.33;;;3.38;;
61025;SDS011;46911;32.650;-16.902;2023-05-10T04:26:40;20.40;;;3.05;;
61025;SDS011;46911;32.650;-16.902;2023-05-10T04:28:41;15.30;;;2.75;;
61025;SDS011;46911;32.650;-16.902;2023-05-10T04:30:44;29.70;;;4.43;;
61025;SDS011;46911;32.650;-16.902;2023-05-10T04:32:46;25.75;;;3.13;;
61025;SDS011;46911;32.650;-16.902;2023-05-10T04:34:46;19.98;;;3.38;;
61025;SDS011;46911;32.650;-16.902;2023-05-10T04:36:47;26.83;;;5.07;;
61025;SDS011;46911;32.650;-16.902;2023-05-10T04:38:48;29.38;;;4.03;;
61025;SDS011;46911;32.650;-16.902;2023-05-10T04:40:54;19.27;;;2.85;;
61025;SDS011;46911;32.650;-16.902;2023-05-10T04:43:03;19.05;;;3.08;;
61025;SDS011;46911;32.650;-16.902;2023-05-10T04:45:07;26.33;;;4.35;;
61025;SDS011;46911;32.650;-16.902;2023-05-10T04:47:12;21.48;;;3.65;;
61025;SDS011;46911;32.650;-16.902;2023-05-10T04:49:13;16.88;;;3.83;;
61025;SDS011;46911;32.650;-16.902;2023-05-10T04:51:16;22.42;;;3.10;;
61025;SDS011;46911;32.650;-16.902;2023-05-10T04:53:20;23.08;;;3.17;;
61025;SDS011;46911;32.650;-16.902;2023-05-10T04:55:21;26.05;;;3.28;;
61025;SDS011;46911;32.650;-16.902;2023-05-10T04:57:22;18.80;;;2.13;;
61025;SDS011;46911;32.650;-16.902;2023-05-10T04:59:25;22.27;;;3.40;;
61025;SDS011;46911;32.650;-16.902;2023-05-10T05:01:26;15.27;;;2.78;;
61025;SDS011;46911;32.650;-16.902;2023-05-10T05:03:30;17.95;;;2.72;;
61025;SDS011;46911;32.650;-16.902;2023-05-10T05:05:33;18.88;;;2.50;;
61025;SDS011;46911;32.650;-16.902;2023-05-10T05:07:34;21.67;;;3.58;;
61025;SDS011;46911;32.650;-16.902;2023-05-10T05:09:36;14.35;;;2.70;;
61025;SDS011;46911;32.650;-16.902;2023-05-10T05:11:41;15.55;;;2.45;;
61025;SDS011;46911;32.650;-16.902;2023-05-10T05:13:44;24.38;;;3.75;;
61025;SDS011;46911;32.650;-16.902;2023-05-10T05:15:48;16.98;;;3.22;;
61025;SDS011;46911;32.650;-16.902;2023-05-10T05:17:51;17.08;;;2.92;;
61025;SDS011;46911;32.650;-16.902;2023-05-10T05:19:52;21.85;;;3.22;;
61025;SDS011;46911;32.650;-16.902;2023-05-10T05:21:58;13.35;;;2.58;;
61025;SDS011;46911;32.650;-16.902;2023-05-10T05:24:02;28.85;;;3.58;;
61025;SDS011;46911;32.650;-16.902;2023-05-10T05:26:03;19.30;;;3.13;;
61025;SDS011;46911;32.650;-16.902;2023-05-10T05:28:06;23.65;;;3.20;;
61025;SDS011;46911;32.650;-16.902;2023-05-10T05:30:09;17.00;;;3.00;;
61025;SDS011;46911;32.650;-16.902;2023-05-10T05:32:10;16.98;;;2.72;;
61025;SDS011;46911;32.650;-16.902;2023-05-10T05:34:12;21.95;;;3.45;;
61025;SDS011;46911;32.650;-16.902;2023-05-10T05:36:15;17.08;;;3.00;;
61025;SDS011;46911;32.650;-16.902;2023-05-10T05:38:16;17.38;;;3.10;;
61025;SDS011;46911;32.650;-16.902;2023-05-10T05:40:17;16.13;;;3.08;;
61025;SDS011;46911;32.650;-16.902;2023-05-10T05:42:21;24.20;;;3.80;;
61025;SDS011;46911;32.650;-16.902;2023-05-10T05:44:22;20.55;;;3.20;;
61025;SDS011;46911;32.650;-16.902;2023-05-10T05:46:25;14.32;;;3.17;;
61025;SDS011;46911;32.650;-16.902;2023-05-10T05:48:29;12.63;;;4.22;;
61025;SDS011;46911;32.650;-16.902;2023-05-10T05:50:34;15.95;;;3.05;;
61025;SDS011;46911;32.650;-16.902;2023-05-10T05:52:35;19.70;;;3.58;;
61025;SDS011;46911;32.650;-16.902;2023-05-10T05:54:41;20.08;;;3.63;;
61025;SDS011;46911;32.650;-16.902;2023-05-10T05:56:44;24.13;;;3.97;;
61025;SDS011;46911;32.650;-16.902;2023-05-10T05:58:45;19.27;;;3.20;;
61025;SDS011;46911;32.650;-16.902;2023-05-10T06:00:49;19.20;;;4.68;;
61025;SDS011;46911;32.650;-16.902;2023-05-10T06:02:51;25.92;;;3.92;;
61025;SDS011;46911;32.650;-16.902;2023-05-10T06:04:52;20.88;;;3.65;;
61025;SDS011;46911;32.650;-16.902;2023-05-10T06:06:57;23.92;;;4.40;;
61025;SDS011;46911;32.650;-16.902;2023-05-10T06:09:03;23.48;;;3.80;;
61025;SDS011;46911;32.650;-16.902;2023-05-10T06:11:09;24.35;;;3.28;;
61025;SDS011;46911;32.650;-16.902;2023-05-10T06:13:13;20.88;;;3.92;;
61025;SDS011;46911;32.650;-16.902;2023-05-10T06:15:16;19.58;;;4.55;;
61025;SDS011;46911;32.650;-16.902;2023-05-10T06:17:17;26.58;;;3.90;;
61025;SDS011;46911;32.650;-16.902;2023-05-10T06:19:22;25.95;;;4.10;;
61025;SDS011;46911;32.650;-16.902;2023-05-10T06:21:22;23.27;;;4.03;;
61025;SDS011;46911;32.650;-16.902;2023-05-10T06:23:26;22.88;;;3.25;;
61025;SDS011;46911;32.650;-16.902;2023-05-10T06:25:32;22.77;;;5.45;;
61025;SDS011;46911;32.650;-16.902;2023-05-10T06:27:33;24.00;;;4.68;;
61025;SDS011;46911;32.650;-16.902;2023-05-10T06:29:34;29.30;;;5.50;;
61025;SDS011;46911;32.650;-16.902;2023-05-10T06:31:34;26.25;;;4.20;;
61025;SDS011;46911;32.650;-16.902;2023-05-10T06:33:35;21.95;;;4.35;;
61025;SDS011;46911;32.650;-16.902;2023-05-10T06:35:36;24.05;;;3.95;;
61025;SDS011;46911;32.650;-16.902;2023-05-10T06:37:37;32.42;;;4.97;;
61025;SDS011;46911;32.650;-16.902;2023-05-10T06:39:38;18.65;;;3.88;;
61025;SDS011;46911;32.650;-16.902;2023-05-10T06:41:46;24.08;;;4.45;;
61025;SDS011;46911;32.650;-16.902;2023-05-10T06:43:47;22.02;;;4.32;;
61025;SDS011;46911;32.650;-16.902;2023-05-10T06:45:50;18.27;;;4.40;;
61025;SDS011;46911;32.650;-16.902;2023-05-10T06:47:54;30.73;;;4.47;;
61025;SDS011;46911;32.650;-16.902;2023-05-10T06:49:55;30.55;;;4.18;;
61025;SDS011;46911;32.650;-16.902;2023-05-10T06:51:56;21.50;;;3.53;;
61025;SDS011;46911;32.650;-16.902;2023-05-10T06:53:59;23.60;;;4.20;;
61025;SDS011;46911;32.650;-16.902;2023-05-10T06:56:00;16.95;;;4.85;;
61025;SDS011;46911;32.650;-16.902;2023-05-10T06:58:03;16.67;;;3.85;;
61025;SDS011;46911;32.650;-16.902;2023-05-10T07:00:04;22.02;;;4.43;;
61025;SDS011;46911;32.650;-16.902;2023-05-10T07:02:06;22.70;;;4.30;;
61025;SDS011;46911;32.650;-16.902;2023-05-10T07:04:07;20.60;;;3.90;;
61025;SDS011;46911;32.650;-16.902;2023-05-10T07:06:08;27.55;;;4.18;;
61025;SDS011;46911;32.650;-16.902;2023-05-10T07:08:09;24.15;;;3.92;;
61025;SDS011;46911;32.650;-16.902;2023-05-10T07:10:12;17.58;;;4.18;;
61025;SDS011;46911;32.650;-16.902;2023-05-10T07:12:15;30.33;;;4.93;;
61025;SDS011;46911;32.650;-16.902;2023-05-10T07:14:18;24.88;;;4.82;;
61025;SDS011;46911;32.650;-16.902;2023-05-10T07:16:19;16.35;;;3.40;;
61025;SDS011;46911;32.650;-16.902;2023-05-10T07:18:21;22.02;;;4.22;;
61025;SDS011;46911;32.650;-16.902;2023-05-10T07:20:25;33.00;;;4.40;;
61025;SDS011;46911;32.650;-16.902;2023-05-10T07:22:26;23.20;;;3.90;;
61025;SDS011;46911;32.650;-16.902;2023-05-10T07:24:30;31.95;;;4.05;;
61025;SDS011;46911;32.650;-16.902;2023-05-10T07:26:32;34.45;;;4.40;;
61025;SDS011;46911;32.650;-16.902;2023-05-10T07:28:33;24.27;;;4.90;;
61025;SDS011;46911;32.650;-16.902;2023-05-10T07:30:36;32.60;;;4.95;;
61025;SDS011;46911;32.650;-16.902;2023-05-10T07:32:37;23.88;;;4.32;;
61025;SDS011;46911;32.650;-16.902;2023-05-10T07:34:41;21.52;;;4.43;;
61025;SDS011;46911;32.650;-16.902;2023-05-10T07:36:45;21.60;;;5.15;;
61025;SDS011;46911;32.650;-16.902;2023-05-10T07:38:46;25.83;;;3.78;;
61025;SDS011;46911;32.650;-16.902;2023-05-10T07:40:47;14.82;;;3.72;;
61025;SDS011;46911;32.650;-16.902;2023-05-10T07:42:48;18.25;;;3.28;;
61025;SDS011;46911;32.650;-16.902;2023-05-10T07:44:48;22.67;;;3.63;;
61025;SDS011;46911;32.650;-16.902;2023-05-10T07:46:52;32.83;;;4.63;;
61025;SDS011;46911;32.650;-16.902;2023-05-10T07:48:58;28.60;;;3.97;;
61025;SDS011;46911;32.650;-16.902;2023-05-10T07:51:03;35.13;;;4.20;;
61025;SDS011;46911;32.650;-16.902;2023-05-10T07:53:04;28.65;;;5.35;;
61025;SDS011;46911;32.650;-16.902;2023-05-10T07:55:08;24.13;;;3.83;;
61025;SDS011;46911;32.650;-16.902;2023-05-10T07:57:09;42.55;;;4.40;;
61025;SDS011;46911;32.650;-16.902;2023-05-10T07:59:19;23.35;;;3.88;;
61025;SDS011;46911;32.650;-16.902;2023-05-10T08:01:23;22.95;;;3.83;;
61025;SDS011;46911;32.650;-16.902;2023-05-10T08:03:27;27.70;;;3.55;;
61025;SDS011;46911;32.650;-16.902;2023-05-10T08:05:31;17.75;;;2.35;;
61025;SDS011;46911;32.650;-16.902;2023-05-10T08:07:36;27.33;;;3.85;;
61025;SDS011;46911;32.650;-16.902;2023-05-10T08:09:37;19.45;;;3.50;;
61025;SDS011;46911;32.650;-16.902;2023-05-10T08:11:38;19.90;;;2.95;;
61025;SDS011;46911;32.650;-16.902;2023-05-10T08:13:41;33.95;;;3.83;;
61025;SDS011;46911;32.650;-16.902;2023-05-10T08:15:42;19.98;;;3.63;;
61025;SDS011;46911;32.650;-16.902;2023-05-10T08:17:43;31.75;;;4.28;;
61025;SDS011;46911;32.650;-16.902;2023-05-10T08:19:49;30.73;;;4.22;;
61025;SDS011;46911;32.650;-16.902;2023-05-10T08:21:54;31.20;;;3.53;;
61025;SDS011;46911;32.650;-16.902;2023-05-10T08:23:58;19.77;;;4.13;;
61025;SDS011;46911;32.650;-16.902;2023-05-10T08:25:59;23.38;;;4.10;;
61025;SDS011;46911;32.650;-16.902;2023-05-10T08:28:06;25.92;;;3.50;;
61025;SDS011;46911;32.650;-16.902;2023-05-10T08:30:11;22.75;;;3.75;;
61025;SDS011;46911;32.650;-16.902;2023-05-10T08:32:13;23.00;;;3.55;;
61025;SDS011;46911;32.650;-16.902;2023-05-10T08:34:14;21.95;;;3.35;;
61025;SDS011;46911;32.650;-16.902;2023-05-10T08:36:17;37.83;;;5.32;;
61025;SDS011;46911;32.650;-16.902;2023-05-10T08:38:24;26.55;;;4.05;;
61025;SDS011;46911;32.650;-16.902;2023-05-10T08:40:26;25.38;;;4.18;;
61025;SDS011;46911;32.650;-16.902;2023-05-10T08:42:33;28.40;;;3.13;;
61025;SDS011;46911;32.650;-16.902;2023-05-10T08:44:40;24.90;;;4.18;;
61025;SDS011;46911;32.650;-16.902;2023-05-10T08:46:41;23.45;;;4.03;;
61025;SDS011;46911;32.650;-16.902;2023-05-10T08:48:51;28.80;;;4.53;;
61025;SDS011;46911;32.650;-16.902;2023-05-10T08:50:57;21.35;;;3.90;;
61025;SDS011;46911;32.650;-16.902;2023-05-10T08:53:01;23.23;;;3.30;;
61025;SDS011;46911;32.650;-16.902;2023-05-10T08:55:08;21.80;;;4.10;;
61025;SDS011;46911;32.650;-16.902;2023-05-10T08:57:12;43.25;;;4.93;;
61025;SDS011;46911;32.650;-16.902;2023-05-10T08:59:15;31.67;;;5.22;;
61025;SDS011;46911;32.650;-16.902;2023-05-10T09:01:16;22.65;;;4.20;;
61025;SDS011;46911;32.650;-16.902;2023-05-10T09:03:19;24.45;;;4.28;;
61025;SDS011;46911;32.650;-16.902;2023-05-10T09:05:20;23.92;;;3.80;;
61025;SDS011;46911;32.650;-16.902;2023-05-10T09:07:26;31.70;;;4.05;;
61025;SDS011;46911;32.650;-16.902;2023-05-10T09:09:30;37.97;;;4.80;;
61025;SDS011;46911;32.650;-16.902;2023-05-10T09:11:32;26.00;;;3.40;;
61025;SDS011;46911;32.650;-16.902;2023-05-10T09:13:33;21.00;;;3.65;;
61025;SDS011;46911;32.650;-16.902;2023-05-10T09:15:35;28.65;;;4.80;;
61025;SDS011;46911;32.650;-16.902;2023-05-10T09:17:39;24.52;;;4.03;;
61025;SDS011;46911;32.650;-16.902;2023-05-10T09:19:46;24.55;;;3.90;;
61025;SDS011;46911;32.650;-16.902;2023-05-10T09:21:49;20.40;;;3.72;;
61025;SDS011;46911;32.650;-16.902;2023-05-10T09:23:50;22.10;;;4.18;;
61025;SDS011;46911;32.650;-16.902;2023-05-10T09:26:02;27.67;;;5.20;;
61025;SDS011;46911;32.650;-16.902;2023-05-10T09:28:06;28.95;;;5.05;;
61025;SDS011;46911;32.650;-16.902;2023-05-10T09:30:10;21.10;;;4.05;;
61025;SDS011;46911;32.650;-16.902;2023-05-10T09:32:16;22.25;;;4.35;;
61025;SDS011;46911;32.650;-16.902;2023-05-10T09:34:20;34.17;;;4.93;;
61025;SDS011;46911;32.650;-16.902;2023-05-10T09:36:37;24.25;;;4.43;;
61025;SDS011;46911;32.650;-16.902;2023-05-10T09:39:00;27.23;;;3.83;;
61025;SDS011;46911;32.650;-16.902;2023-05-10T09:41:02;30.50;;;4.15;;
61025;SDS011;46911;32.650;-16.902;2023-05-10T09:43:06;26.75;;;4.43;;
61025;SDS011;46911;32.650;-16.902;2023-05-10T09:45:08;20.20;;;3.63;;
61025;SDS011;46911;32.650;-16.902;2023-05-10T09:47:16;23.05;;;4.28;;
61025;SDS011;46911;32.650;-16.902;2023-05-10T09:49:20;24.88;;;4.53;;
61025;SDS011;46911;32.650;-16.902;2023-05-10T09:51:26;20.15;;;3.72;;
61025;SDS011;46911;32.650;-16.902;2023-05-10T09:53:29;22.45;;;4.53;;
61025;SDS011;46911;32.650;-16.902;2023-05-10T09:55:41;24.30;;;3.65;;
61025;SDS011;46911;32.650;-16.902;2023-05-10T09:57:49;16.52;;;3.47;;
61025;SDS011;46911;32.650;-16.902;2023-05-10T10:00:03;32.03;;;4.22;;
61025;SDS011;46911;32.650;-16.902;2023-05-10T10:02:13;19.98;;;3.50;;
61025;SDS011;46911;32.650;-16.902;2023-05-10T10:04:17;26.13;;;4.03;;
61025;SDS011;46911;32.650;-16.902;2023-05-10T10:06:20;19.33;;;4.25;;
61025;SDS011;46911;32.650;-16.902;2023-05-10T10:08:25;21.50;;;3.30;;
61025;SDS011;46911;32.650;-16.902;2023-05-10T10:10:27;22.80;;;3.78;;
61025;SDS011;46911;32.650;-16.902;2023-05-10T10:12:28;32.85;;;4.43;;
61025;SDS011;46911;32.650;-16.902;2023-05-10T10:14:31;25.02;;;3.58;;
61025;SDS011;46911;32.650;-16.902;2023-05-10T10:16:33;28.45;;;4.22;;
61025;SDS011;46911;32.650;-16.902;2023-05-10T10:18:34;35.47;;;4.28;;
61025;SDS011;46911;32.650;-16.902;2023-05-10T10:20:39;17.15;;;3.72;;
61025;SDS011;46911;32.650;-16.902;2023-05-10T10:22:44;19.98;;;4.32;;
61025;SDS011;46911;32.650;-16.902;2023-05-10T10:24:45;26.80;;;5.00;;
61025;SDS011;46911;32.650;-16.902;2023-05-10T10:26:49;20.45;;;3.55;;
61025;SDS011;46911;32.650;-16.902;2023-05-10T10:31:27;25.30;;;4.20;;
61025;SDS011;46911;32.650;-16.902;2023-05-10T10:36:00;24.42;;;4.78;;
61025;SDS011;46911;32.650;-16.902;2023-05-10T10:38:02;22.35;;;4.03;;
61025;SDS011;46911;32.650;-16.902;2023-05-10T10:42:46;26.05;;;4.20;;
61025;SDS011;46911;32.650;-16.902;2023-05-10T10:44:50;22.58;;;4.05;;
61025;SDS011;46911;32.650;-16.902;2023-05-10T10:49:25;19.50;;;4.63;;
61025;SDS011;46911;32.650;-16.902;2023-05-10T10:51:29;22.23;;;3.95;;
61025;SDS011;46911;32.650;-16.902;2023-05-10T10:53:36;22.50;;;4.15;;
61025;SDS011;46911;32.650;-16.902;2023-05-10T10:58:12;29.98;;;4.75;;
61025;SDS011;46911;32.650;-16.902;2023-05-10T11:00:37;21.55;;;4.18;;
61025;SDS011;46911;32.650;-16.902;2023-05-10T11:02:45;17.58;;;3.75;;
61025;SDS011;46911;32.650;-16.902;2023-05-10T11:04:51;25.20;;;4.00;;
61025;SDS011;46911;32.650;-16.902;2023-05-10T11:07:15;27.27;;;4.80;;
61025;SDS011;46911;32.650;-16.902;2023-05-10T11:09:22;30.73;;;5.00;;
61025;SDS011;46911;32.650;-16.902;2023-05-10T11:11:25;29.35;;;4.93;;
61025;SDS011;46911;32.650;-16.902;2023-05-10T11:13:26;22.83;;;4.15;;
61025;SDS011;46911;32.650;-16.902;2023-05-10T11:15:32;24.33;;;4.20;;
61025;SDS011;46911;32.650;-16.902;2023-05-10T11:17:37;32.95;;;4.72;;
61025;SDS011;46911;32.650;-16.902;2023-05-10T11:19:53;20.23;;;4.05;;
61025;SDS011;46911;32.650;-16.902;2023-05-10T11:22:12;26.58;;;4.63;;
61025;SDS011;46911;32.650;-16.902;2023-05-10T11:24:17;30.83;;;4.97;;
61025;SDS011;46911;32.650;-16.902;2023-05-10T11:26:19;39.60;;;6.47;;
61025;SDS011;46911;32.650;-16.902;2023-05-10T11:28:26;23.75;;;4.22;;
61025;SDS011;46911;32.650;-16.902;2023-05-10T11:30:28;24.25;;;4.85;;
61025;SDS011;46911;32.650;-16.902;2023-05-10T11:32:29;32.20;;;5.00;;
61025;SDS011;46911;32.650;-16.902;2023-05-10T11:34:35;28.70;;;5.88;;
61025;SDS011;46911;32.650;-16.902;2023-05-10T11:36:36;29.73;;;6.72;;
61025;SDS011;46911;32.650;-16.902;2023-05-10T11:38:39;28.25;;;4.20;;
61025;SDS011;46911;32.650;-16.902;2023-05-10T11:40:40;40.95;;;5.35;;
61025;SDS011;46911;32.650;-16.902;2023-05-10T11:42:45;32.28;;;5.60;;
61025;SDS011;46911;32.650;-16.902;2023-05-10T11:44:48;27.52;;;5.10;;
61025;SDS011;46911;32.650;-16.902;2023-05-10T11:46:49;27.35;;;4.55;;
61025;SDS011;46911;32.650;-16.902;2023-05-10T11:48:50;21.48;;;3.65;;
61025;SDS011;46911;32.650;-16.902;2023-05-10T11:50:56;28.23;;;4.38;;
61025;SDS011;46911;32.650;-16.902;2023-05-10T11:53:00;26.02;;;4.53;;
61025;SDS011;46911;32.650;-16.902;2023-05-10T11:55:04;26.10;;;4.95;;
61025;SDS011;46911;32.650;-16.902;2023-05-10T11:57:08;21.90;;;4.47;;
61025;SDS011;46911;32.650;-16.902;2023-05-10T11:59:13;31.17;;;6.13;;
61025;SDS011;46911;32.650;-16.902;2023-05-10T12:01:15;22.95;;;4.72;;
61025;SDS011;46911;32.650;-16.902;2023-05-10T12:03:18;20.55;;;4.40;;
61025;SDS011;46911;32.650;-16.902;2023-05-10T12:05:19;33.75;;;4.60;;
61025;SDS011;46911;32.650;-16.902;2023-05-10T12:07:20;27.13;;;4.50;;
61025;SDS011;46911;32.650;-16.902;2023-05-10T12:09:23;21.80;;;5.10;;
61025;SDS011;46911;32.650;-16.902;2023-05-10T12:11:29;29.33;;;5.25;;
61025;SDS011;46911;32.650;-16.902;2023-05-10T12:13:30;24.70;;;4.85;;
61025;SDS011;46911;32.650;-16.902;2023-05-10T12:15:33;23.02;;;4.57;;
61025;SDS011;46911;32.650;-16.902;2023-05-10T12:17:39;23.52;;;4.18;;
61025;SDS011;46911;32.650;-16.902;2023-05-10T12:19:44;27.50;;;4.90;;
61025;SDS011;46911;32.650;-16.902;2023-05-10T12:21:44;36.97;;;4.90;;
61025;SDS011;46911;32.650;-16.902;2023-05-10T12:23:51;22.15;;;5.05;;
61025;SDS011;46911;32.650;-16.902;2023-05-10T12:26:01;23.08;;;4.82;;